Ashaway, Rhode Island
Current Conditions -  °F | °C
As of 1:53 PM on Thursday 27 Nov 2014 (Local Time) from KWST Reporting Station
Light Rain Light Rain  
Wind Chill: 40°   Ceiling: 2200
Heat Index: 40°   Visibility: 10mi
Dew Point: 33°   Wind: 3mph
Humidity: 77%   Direction: 320°NW
Pressure: 29.94"   Gusts: NA
Location:  41.43°N, 71.79°W
Report Text: KWST 271853Z AUTO 32003KT 10SM -RA BKN022 OVC029 04/01 A2994 RMK AO2 RAB27 SLP140 P0000 T00440006
Loading
Personal Weather Stations






























Interactive Weather Map New forecast layout! Learn more

10-Day Weather Forecast

Advertisements
Track Severe Weather on mobile